sensor_id;sensor_type;location;lat;lon;timestamp;pressure;altitude;pressure_sealevel;temperature;humidity
28310;BME280;15571;50.974;13.936;2023-06-19T00:00:22;99922.75;;;18.43;100.00
28310;BME280;15571;50.974;13.936;2023-06-19T00:03:24;99921.19;;;18.39;100.00
28310;BME280;15571;50.974;13.936;2023-06-19T00:06:29;99916.00;;;18.36;100.00
28310;BME280;15571;50.974;13.936;2023-06-19T00:09:31;99917.09;;;18.32;100.00
28310;BME280;15571;50.974;13.936;2023-06-19T00:12:36;99917.25;;;18.27;100.00
28310;BME280;15571;50.974;13.936;2023-06-19T00:15:40;99919.97;;;18.26;100.00
28310;BME280;15571;50.974;13.936;2023-06-19T00:18:43;99912.03;;;18.26;100.00
28310;BME280;15571;50.974;13.936;2023-06-19T00:21:45;99916.66;;;18.20;100.00
28310;BME280;15571;50.974;13.936;2023-06-19T00:24:47;99909.69;;;18.18;100.00
28310;BME280;15571;50.974;13.936;2023-06-19T00:27:50;99906.47;;;18.11;100.00
28310;BME280;15571;50.974;13.936;2023-06-19T00:30:59;99906.69;;;18.05;100.00
28310;BME280;15571;50.974;13.936;2023-06-19T00:34:01;99910.25;;;18.04;100.00
28310;BME280;15571;50.974;13.936;2023-06-19T00:37:04;99915.44;;;18.07;100.00
28310;BME280;15571;50.974;13.936;2023-06-19T00:40:09;99907.88;;;17.98;100.00
28310;BME280;15571;50.974;13.936;2023-06-19T00:43:12;99918.34;;;18.01;100.00
28310;BME280;15571;50.974;13.936;2023-06-19T00:46:18;99911.34;;;18.00;100.00
28310;BME280;15571;50.974;13.936;2023-06-19T00:49:21;99911.34;;;18.00;100.00
28310;BME280;15571;50.974;13.936;2023-06-19T00:52:24;99912.19;;;18.00;100.00
28310;BME280;15571;50.974;13.936;2023-06-19T00:55:29;99912.34;;;17.97;100.00
28310;BME280;15571;50.974;13.936;2023-06-19T00:58:31;99899.00;;;17.99;100.00
28310;BME280;15571;50.974;13.936;2023-06-19T01:01:35;99902.66;;;17.95;100.00
28310;BME280;15571;50.974;13.936;2023-06-19T01:04:38;99905.47;;;17.92;100.00
28310;BME280;15571;50.974;13.936;2023-06-19T01:07:46;99899.28;;;17.91;100.00
28310;BME280;15571;50.974;13.936;2023-06-19T01:10:52;99897.63;;;17.88;100.00
28310;BME280;15571;50.974;13.936;2023-06-19T01:14:04;99898.75;;;17.83;100.00
28310;BME280;15571;50.974;13.936;2023-06-19T01:17:15;99891.66;;;17.83;100.00
28310;BME280;15571;50.974;13.936;2023-06-19T01:20:20;99902.25;;;17.83;100.00
28310;BME280;15571;50.974;13.936;2023-06-19T01:23:24;99895.38;;;17.79;100.00
28310;BME280;15571;50.974;13.936;2023-06-19T01:26:28;99891.72;;;17.82;100.00
28310;BME280;15571;50.974;13.936;2023-06-19T01:29:31;99892.66;;;17.81;100.00
28310;BME280;15571;50.974;13.936;2023-06-19T01:32:35;99884.84;;;17.78;100.00
28310;BME280;15571;50.974;13.936;2023-06-19T01:35:41;99886.81;;;17.72;100.00
28310;BME280;15571;50.974;13.936;2023-06-19T01:38:45;99887.00;;;17.68;100.00
28310;BME280;15571;50.974;13.936;2023-06-19T01:41:50;99877.34;;;17.67;100.00
28310;BME280;15571;50.974;13.936;2023-06-19T01:44:53;99882.75;;;17.64;100.00
28310;BME280;15571;50.974;13.936;2023-06-19T01:47:56;99874.81;;;17.64;100.00
28310;BME280;15571;50.974;13.936;2023-06-19T01:50:59;99872.59;;;17.53;100.00
28310;BME280;15571;50.974;13.936;2023-06-19T01:54:05;99859.81;;;17.42;100.00
28310;BME280;15571;50.974;13.936;2023-06-19T01:57:08;99871.22;;;17.42;100.00
28310;BME280;15571;50.974;13.936;2023-06-19T02:00:11;99861.56;;;17.41;100.00
28310;BME280;15571;50.974;13.936;2023-06-19T02:03:16;99866.94;;;17.40;100.00
28310;BME280;15571;50.974;13.936;2023-06-19T02:06:19;99863.38;;;17.41;100.00
28310;BME280;15571;50.974;13.936;2023-06-19T02:09:23;99858.19;;;17.38;100.00
28310;BME280;15571;50.974;13.936;2023-06-19T02:12:25;99849.81;;;17.26;100.00
28310;BME280;15571;50.974;13.936;2023-06-19T02:15:27;99856.75;;;17.29;100.00
28310;BME280;15571;50.974;13.936;2023-06-19T02:18:32;99849.06;;;17.23;100.00
28310;BME280;15571;50.974;13.936;2023-06-19T02:21:34;99848.44;;;17.16;100.00
28310;BME280;15571;50.974;13.936;2023-06-19T02:24:38;99851.16;;;17.15;100.00
28310;BME280;15571;50.974;13.936;2023-06-19T02:27:40;99854.66;;;17.15;100.00
28310;BME280;15571;50.974;13.936;2023-06-19T02:30:43;99844.31;;;17.09;100.00
28310;BME280;15571;50.974;13.936;2023-06-19T02:33:49;99853.97;;;17.10;100.00
28310;BME280;15571;50.974;13.936;2023-06-19T02:36:53;99853.25;;;17.06;100.00
28310;BME280;15571;50.974;13.936;2023-06-19T02:39:57;99854.97;;;17.07;100.00
28310;BME280;15571;50.974;13.936;2023-06-19T02:42:59;99858.75;;;17.00;100.00
28310;BME280;15571;50.974;13.936;2023-06-19T02:46:01;99854.41;;;16.99;100.00
28310;BME280;15571;50.974;13.936;2023-06-19T02:49:03;99844.19;;;16.88;100.00
28310;BME280;15571;50.974;13.936;2023-06-19T02:52:07;99848.56;;;16.89;100.00
28310;BME280;15571;50.974;13.936;2023-06-19T02:55:13;99847.72;;;16.89;100.00
28310;BME280;15571;50.974;13.936;2023-06-19T02:58:20;99848.00;;;16.81;100.00
28310;BME280;15571;50.974;13.936;2023-06-19T03:01:25;99843.50;;;16.83;100.00
28310;BME280;15571;50.974;13.936;2023-06-19T03:04:31;99840.88;;;16.83;100.00
28310;BME280;15571;50.974;13.936;2023-06-19T03:07:33;99846.03;;;16.86;100.00
28310;BME280;15571;50.974;13.936;2023-06-19T03:10:37;99835.41;;;16.88;100.00
28310;BME280;15571;50.974;13.936;2023-06-19T03:13:44;99839.72;;;16.90;100.00
28310;BME280;15571;50.974;13.936;2023-06-19T03:16:47;99832.59;;;16.92;100.00
28310;BME280;15571;50.974;13.936;2023-06-19T03:19:49;99828.16;;;16.94;100.00
28310;BME280;15571;50.974;13.936;2023-06-19T03:22:52;99833.28;;;16.98;100.00
28310;BME280;15571;50.974;13.936;2023-06-19T03:25:56;99822.53;;;17.02;100.00
28310;BME280;15571;50.974;13.936;2023-06-19T03:28:59;99822.50;;;17.04;100.00
28310;BME280;15571;50.974;13.936;2023-06-19T03:32:09;99825.81;;;17.09;100.00
28310;BME280;15571;50.974;13.936;2023-06-19T03:35:13;99831.81;;;17.14;100.00
28310;BME280;15571;50.974;13.936;2023-06-19T03:38:21;99835.19;;;17.18;100.00
28310;BME280;15571;50.974;13.936;2023-06-19T03:41:25;99827.28;;;17.16;100.00
28310;BME280;15571;50.974;13.936;2023-06-19T03:44:35;99829.72;;;17.22;100.00
28310;BME280;15571;50.974;13.936;2023-06-19T03:47:38;99833.91;;;17.28;100.00
28310;BME280;15571;50.974;13.936;2023-06-19T03:50:41;99838.13;;;17.32;100.00
28310;BME280;15571;50.974;13.936;2023-06-19T03:53:43;99831.06;;;17.33;100.00
28310;BME280;15571;50.974;13.936;2023-06-19T03:56:46;99829.19;;;17.35;100.00
28310;BME280;15571;50.974;13.936;2023-06-19T03:59:48;99822.03;;;17.38;100.00
28310;BME280;15571;50.974;13.936;2023-06-19T04:02:56;99827.91;;;17.45;100.00
28310;BME280;15571;50.974;13.936;2023-06-19T04:05:58;99825.97;;;17.50;100.00
28310;BME280;15571;50.974;13.936;2023-06-19T04:09:00;99826.75;;;17.52;100.00
28310;BME280;15571;50.974;13.936;2023-06-19T04:12:05;99831.72;;;17.60;100.00
28310;BME280;15571;50.974;13.936;2023-06-19T04:15:11;99834.19;;;17.65;100.00
28310;BME280;15571;50.974;13.936;2023-06-19T04:18:13;99827.72;;;17.72;100.00
28310;BME280;15571;50.974;13.936;2023-06-19T04:21:15;99832.84;;;17.77;100.00
28310;BME280;15571;50.974;13.936;2023-06-19T04:24:18;99835.00;;;17.87;100.00
28310;BME280;15571;50.974;13.936;2023-06-19T04:27:22;99830.25;;;17.97;100.00
28310;BME280;15571;50.974;13.936;2023-06-19T04:30:27;99828.97;;;18.06;100.00
28310;BME280;15571;50.974;13.936;2023-06-19T04:33:29;99831.28;;;18.14;100.00
28310;BME280;15571;50.974;13.936;2023-06-19T04:36:31;99839.84;;;18.20;100.00
28310;BME280;15571;50.974;13.936;2023-06-19T04:39:34;99843.81;;;18.31;100.00
28310;BME280;15571;50.974;13.936;2023-06-19T04:42:40;99854.72;;;18.44;100.00
28310;BME280;15571;50.974;13.936;2023-06-19T04:45:48;99849.94;;;18.52;100.00
28310;BME280;15571;50.974;13.936;2023-06-19T04:48:52;99842.59;;;18.59;100.00
28310;BME280;15571;50.974;13.936;2023-06-19T04:51:58;99849.31;;;18.66;100.00
28310;BME280;15571;50.974;13.936;2023-06-19T04:55:00;99848.19;;;18.72;100.00
28310;BME280;15571;50.974;13.936;2023-06-19T04:58:03;99843.53;;;18.77;100.00
28310;BME280;15571;50.974;13.936;2023-06-19T05:01:13;99844.09;;;18.83;100.00
28310;BME280;15571;50.974;13.936;2023-06-19T05:04:16;99832.56;;;18.85;100.00
28310;BME280;15571;50.974;13.936;2023-06-19T05:07:18;99842.66;;;18.97;100.00
28310;BME280;15571;50.974;13.936;2023-06-19T05:10:20;99840.38;;;19.08;100.00
28310;BME280;15571;50.974;13.936;2023-06-19T05:13:23;99841.00;;;19.13;100.00
28310;BME280;15571;50.974;13.936;2023-06-19T05:16:26;99846.97;;;19.19;100.00
28310;BME280;15571;50.974;13.936;2023-06-19T05:19:32;99849.53;;;19.20;100.00
28310;BME280;15571;50.974;13.936;2023-06-19T05:22:34;99846.75;;;19.23;100.00
28310;BME280;15571;50.974;13.936;2023-06-19T05:25:37;99847.50;;;19.25;100.00
28310;BME280;15571;50.974;13.936;2023-06-19T05:28:41;99844.63;;;19.30;100.00
28310;BME280;15571;50.974;13.936;2023-06-19T05:31:43;99855.81;;;19.37;100.00
28310;BME280;15571;50.974;13.936;2023-06-19T05:34:45;99852.94;;;19.41;100.00
28310;BME280;15571;50.974;13.936;2023-06-19T05:37:47;99845.63;;;19.47;100.00
28310;BME280;15571;50.974;13.936;2023-06-19T05:40:50;99858.81;;;19.48;100.00
28310;BME280;15571;50.974;13.936;2023-06-19T05:43:53;99853.94;;;19.58;100.00
28310;BME280;15571;50.974;13.936;2023-06-19T05:46:55;99859.06;;;19.61;100.00
28310;BME280;15571;50.974;13.936;2023-06-19T05:49:58;99858.78;;;19.67;100.00
28310;BME280;15571;50.974;13.936;2023-06-19T05:53:00;99859.50;;;19.71;100.00
28310;BME280;15571;50.974;13.936;2023-06-19T05:56:04;99854.81;;;19.76;100.00
28310;BME280;15571;50.974;13.936;2023-06-19T05:59:11;99856.28;;;19.82;100.00
28310;BME280;15571;50.974;13.936;2023-06-19T06:02:15;99857.72;;;19.89;100.00
28310;BME280;15571;50.974;13.936;2023-06-19T06:05:21;99854.09;;;19.92;100.00
28310;BME280;15571;50.974;13.936;2023-06-19T06:08:25;99860.94;;;19.96;100.00
28310;BME280;15571;50.974;13.936;2023-06-19T06:11:27;99864.31;;;19.99;100.00
28310;BME280;15571;50.974;13.936;2023-06-19T06:14:33;99853.84;;;19.96;100.00
28310;BME280;15571;50.974;13.936;2023-06-19T06:17:37;99860.41;;;20.06;100.00
28310;BME280;15571;50.974;13.936;2023-06-19T06:20:39;99864.72;;;20.09;100.00
28310;BME280;15571;50.974;13.936;2023-06-19T06:23:41;99865.31;;;20.14;100.00
28310;BME280;15571;50.974;13.936;2023-06-19T06:26:45;99876.50;;;20.21;100.00
28310;BME280;15571;50.974;13.936;2023-06-19T06:29:49;99871.97;;;20.23;100.00
28310;BME280;15571;50.974;13.936;2023-06-19T06:32:51;99868.06;;;20.30;100.00
28310;BME280;15571;50.974;13.936;2023-06-19T06:35:54;99877.75;;;20.31;100.00
28310;BME280;15571;50.974;13.936;2023-06-19T06:38:56;99872.28;;;20.34;100.00
28310;BME280;15571;50.974;13.936;2023-06-19T06:42:02;99870.69;;;20.48;100.00
28310;BME280;15571;50.974;13.936;2023-06-19T06:45:07;99880.16;;;20.53;100.00
28310;BME280;15571;50.974;13.936;2023-06-19T06:48:09;99875.31;;;20.62;100.00
28310;BME280;15571;50.974;13.936;2023-06-19T06:51:11;99883.78;;;20.68;100.00
28310;BME280;15571;50.974;13.936;2023-06-19T06:54:14;99881.91;;;20.71;100.00
28310;BME280;15571;50.974;13.936;2023-06-19T06:57:16;99879.91;;;20.76;100.00
28310;BME280;15571;50.974;13.936;2023-06-19T07:00:20;99873.84;;;20.72;100.00
28310;BME280;15571;50.974;13.936;2023-06-19T07:03:22;99883.34;;;20.78;100.00
28310;BME280;15571;50.974;13.936;2023-06-19T07:06:26;99884.13;;;20.80;100.00
28310;BME280;15571;50.974;13.936;2023-06-19T07:09:29;99882.00;;;20.87;100.00
28310;BME280;15571;50.974;13.936;2023-06-19T07:12:31;99880.81;;;20.92;100.00
28310;BME280;15571;50.974;13.936;2023-06-19T07:15:34;99888.81;;;21.08;100.00
28310;BME280;15571;50.974;13.936;2023-06-19T07:18:37;99888.41;;;21.16;100.00
28310;BME280;15571;50.974;13.936;2023-06-19T07:21:41;99884.47;;;21.23;100.00
28310;BME280;15571;50.974;13.936;2023-06-19T07:24:43;99886.50;;;21.34;100.00
28310;BME280;15571;50.974;13.936;2023-06-19T07:27:46;99884.94;;;21.46;100.00
28310;BME280;15571;50.974;13.936;2023-06-19T07:30:49;99883.47;;;21.56;100.00
28310;BME280;15571;50.974;13.936;2023-06-19T07:33:53;99887.38;;;21.67;100.00
28310;BME280;15571;50.974;13.936;2023-06-19T07:36:55;99887.88;;;21.73;100.00
28310;BME280;15571;50.974;13.936;2023-06-19T07:39:57;99886.41;;;21.84;100.00
28310;BME280;15571;50.974;13.936;2023-06-19T07:42:59;99889.88;;;22.00;100.00
28310;BME280;15571;50.974;13.936;2023-06-19T07:50:24;99884.34;;;22.19;100.00
28310;BME280;15571;50.974;13.936;2023-06-19T07:53:26;99894.47;;;22.29;100.00
28310;BME280;15571;50.974;13.936;2023-06-19T07:56:28;99891.34;;;22.36;100.00
28310;BME280;15571;50.974;13.936;2023-06-19T07:59:30;99891.22;;;22.38;100.00
28310;BME280;15571;50.974;13.936;2023-06-19T08:02:32;99891.22;;;22.38;100.00
28310;BME280;15571;50.974;13.936;2023-06-19T08:05:35;99890.72;;;22.47;100.00
28310;BME280;15571;50.974;13.936;2023-06-19T08:08:37;99890.81;;;22.46;100.00
28310;BME280;15571;50.974;13.936;2023-06-19T08:11:39;99892.25;;;22.51;100.00
28310;BME280;15571;50.974;13.936;2023-06-19T08:14:41;99887.66;;;22.53;100.00
28310;BME280;15571;50.974;13.936;2023-06-19T08:17:43;99894.53;;;22.58;100.00
28310;BME280;15571;50.974;13.936;2023-06-19T08:20:47;99893.59;;;22.59;100.00
28310;BME280;15571;50.974;13.936;2023-06-19T08:23:49;99894.16;;;22.64;100.00
28310;BME280;15571;50.974;13.936;2023-06-19T08:26:51;99895.03;;;22.64;100.00
28310;BME280;15571;50.974;13.936;2023-06-19T08:29:54;99892.84;;;22.71;100.00
28310;BME280;15571;50.974;13.936;2023-06-19T08:32:56;99900.47;;;22.77;100.00
28310;BME280;15571;50.974;13.936;2023-06-19T08:35:59;99894.66;;;22.85;100.00
28310;BME280;15571;50.974;13.936;2023-06-19T08:39:02;99895.22;;;22.90;100.00
28310;BME280;15571;50.974;13.936;2023-06-19T08:42:09;99898.38;;;22.97;100.00
28310;BME280;15571;50.974;13.936;2023-06-19T08:45:18;99898.72;;;23.05;100.00
28310;BME280;15571;50.974;13.936;2023-06-19T08:48:21;99897.19;;;23.15;100.00
28310;BME280;15571;50.974;13.936;2023-06-19T08:51:26;99893.75;;;23.13;100.00
28310;BME280;15571;50.974;13.936;2023-06-19T08:54:29;99894.81;;;23.11;100.00
28310;BME280;15571;50.974;13.936;2023-06-19T08:57:35;99907.50;;;23.07;100.00
28310;BME280;15571;50.974;13.936;2023-06-19T09:00:37;99910.75;;;22.98;100.00
28310;BME280;15571;50.974;13.936;2023-06-19T09:03:39;99911.59;;;22.98;100.00
28310;BME280;15571;50.974;13.936;2023-06-19T09:06:50;99917.81;;;22.84;100.00
28310;BME280;15571;50.974;13.936;2023-06-19T09:09:53;99918.19;;;22.78;100.00
28310;BME280;15571;50.974;13.936;2023-06-19T09:13:03;99916.56;;;22.76;100.00
28310;BME280;15571;50.974;13.936;2023-06-19T09:16:07;99910.19;;;22.78;100.00
28310;BME280;15571;50.974;13.936;2023-06-19T09:19:09;99915.13;;;22.70;100.00
28310;BME280;15571;50.974;13.936;2023-06-19T09:22:13;99913.25;;;22.72;100.00
28310;BME280;15571;50.974;13.936;2023-06-19T09:25:15;99922.38;;;22.68;100.00
28310;BME280;15571;50.974;13.936;2023-06-19T09:28:24;99916.25;;;22.66;100.00
28310;BME280;15571;50.974;13.936;2023-06-19T09:31:33;99906.38;;;22.68;100.00
28310;BME280;15571;50.974;13.936;2023-06-19T09:34:38;99911.69;;;22.68;100.00
28310;BME280;15571;50.974;13.936;2023-06-19T09:37:42;99917.31;;;22.78;100.00
28310;BME280;15571;50.974;13.936;2023-06-19T09:40:46;99921.63;;;22.80;100.00
28310;BME280;15571;50.974;13.936;2023-06-19T09:43:54;99913.53;;;22.82;100.00
28310;BME280;15571;50.974;13.936;2023-06-19T09:47:13;99909.91;;;22.83;100.00
28310;BME280;15571;50.974;13.936;2023-06-19T09:50:22;99908.34;;;22.79;100.00
28310;BME280;15571;50.974;13.936;2023-06-19T09:53:29;99901.41;;;22.76;100.00
28310;BME280;15571;50.974;13.936;2023-06-19T09:56:34;99908.19;;;22.82;100.00
28310;BME280;15571;50.974;13.936;2023-06-19T09:59:43;99911.63;;;22.84;100.00
28310;BME280;15571;50.974;13.936;2023-06-19T10:02:46;99915.22;;;22.83;100.00
28310;BME280;15571;50.974;13.936;2023-06-19T10:06:00;99917.50;;;22.89;100.00
28310;BME280;15571;50.974;13.936;2023-06-19T10:09:09;99915.63;;;22.91;100.00
28310;BME280;15571;50.974;13.936;2023-06-19T10:12:12;99913.81;;;22.92;100.00
28310;BME280;15571;50.974;13.936;2023-06-19T10:15:18;99910.00;;;22.96;100.00
28310;BME280;15571;50.974;13.936;2023-06-19T10:18:20;99913.44;;;22.98;100.00
28310;BME280;15571;50.974;13.936;2023-06-19T10:21:25;99909.63;;;23.02;100.00
28310;BME280;15571;50.974;13.936;2023-06-19T10:24:29;99912.09;;;23.05;100.00
28310;BME280;15571;50.974;13.936;2023-06-19T10:27:36;99910.00;;;23.10;100.00
28310;BME280;15571;50.974;13.936;2023-06-19T10:30:39;99906.94;;;23.16;100.00
28310;BME280;15571;50.974;13.936;2023-06-19T10:33:41;99909.44;;;23.20;100.00
28310;BME280;15571;50.974;13.936;2023-06-19T10:36:43;99906.09;;;23.30;100.00
28310;BME280;15571;50.974;13.936;2023-06-19T10:39:46;99903.69;;;23.40;100.00
28310;BME280;15571;50.974;13.936;2023-06-19T10:42:52;99899.47;;;23.51;100.00
28310;BME280;15571;50.974;13.936;2023-06-19T10:45:54;99896.56;;;23.68;100.00
28310;BME280;15571;50.974;13.936;2023-06-19T10:48:59;99883.75;;;23.86;100.00
28310;BME280;15571;50.974;13.936;2023-06-19T10:52:02;99884.06;;;23.96;100.00
28310;BME280;15571;50.974;13.936;2023-06-19T10:55:06;99870.41;;;24.14;100.00
28310;BME280;15571;50.974;13.936;2023-06-19T10:58:08;99865.28;;;24.23;100.00
28310;BME280;15571;50.974;13.936;2023-06-19T11:01:14;99867.22;;;24.47;100.00
28310;BME280;15571;50.974;13.936;2023-06-19T11:04:16;99865.50;;;24.59;100.00
28310;BME280;15571;50.974;13.936;2023-06-19T11:07:21;99861.69;;;24.76;100.00
28310;BME280;15571;50.974;13.936;2023-06-19T11:10:28;99857.28;;;24.88;100.00
28310;BME280;15571;50.974;13.936;2023-06-19T11:13:30;99858.97;;;24.89;100.00
28310;BME280;15571;50.974;13.936;2023-06-19T11:16:38;99861.88;;;24.99;100.00
28310;BME280;15571;50.974;13.936;2023-06-19T11:19:40;99864.41;;;25.00;100.00
28310;BME280;15571;50.974;13.936;2023-06-19T11:22:44;99867.00;;;24.89;100.00
28310;BME280;15571;50.974;13.936;2023-06-19T11:25:48;99859.41;;;24.96;100.00
28310;BME280;15571;50.974;13.936;2023-06-19T11:28:50;99863.47;;;25.01;100.00
28310;BME280;15571;50.974;13.936;2023-06-19T11:32:04;99863.75;;;25.10;100.00
28310;BME280;15571;50.974;13.936;2023-06-19T11:35:09;99858.91;;;25.28;100.00
28310;BME280;15571;50.974;13.936;2023-06-19T11:38:16;99857.69;;;25.45;100.00
28310;BME280;15571;50.974;13.936;2023-06-19T11:41:29;99855.84;;;25.70;100.00
28310;BME280;15571;50.974;13.936;2023-06-19T11:44:31;99857.44;;;25.72;100.00
28310;BME280;15571;50.974;13.936;2023-06-19T11:47:34;99854.53;;;25.75;100.00
28310;BME280;15571;50.974;13.936;2023-06-19T11:50:42;99849.09;;;25.88;100.00
28310;BME280;15571;50.974;13.936;2023-06-19T11:53:44;99838.16;;;25.91;100.00
28310;BME280;15571;50.974;13.936;2023-06-19T11:56:50;99828.28;;;25.92;100.00
28310;BME280;15571;50.974;13.936;2023-06-19T11:59:53;99832.22;;;25.99;100.00
28310;BME280;15571;50.974;13.936;2023-06-19T12:02:56;99817.72;;;26.02;100.00
28310;BME280;15571;50.974;13.936;2023-06-19T12:05:59;99815.31;;;26.10;100.00
28310;BME280;15571;50.974;13.936;2023-06-19T12:09:01;99822.91;;;26.28;94.92
28310;BME280;15571;50.974;13.936;2023-06-19T12:12:07;99823.41;;;26.33;90.35
28310;BME280;15571;50.974;13.936;2023-06-19T12:15:10;99825.16;;;26.45;79.06
28310;BME280;15571;50.974;13.936;2023-06-19T12:18:12;99817.44;;;26.63;84.60
28310;BME280;15571;50.974;13.936;2023-06-19T12:21:14;99808.78;;;26.71;80.69
28310;BME280;15571;50.974;13.936;2023-06-19T12:24:22;99806.75;;;26.86;83.51
28310;BME280;15571;50.974;13.936;2023-06-19T12:27:27;99808.91;;;27.03;85.92
28310;BME280;15571;50.974;13.936;2023-06-19T12:30:29;99806.41;;;27.23;90.92
28310;BME280;15571;50.974;13.936;2023-06-19T12:33:31;99807.72;;;27.52;90.11
28310;BME280;15571;50.974;13.936;2023-06-19T12:36:34;99795.91;;;27.64;90.02
28310;BME280;15571;50.974;13.936;2023-06-19T12:39:42;99806.50;;;27.77;86.94
28310;BME280;15571;50.974;13.936;2023-06-19T12:42:48;99796.53;;;27.89;79.89
28310;BME280;15571;50.974;13.936;2023-06-19T12:45:51;99788.81;;;27.95;79.30
28310;BME280;15571;50.974;13.936;2023-06-19T12:48:53;99795.22;;;28.04;77.91
28310;BME280;15571;50.974;13.936;2023-06-19T12:51:56;99784.72;;;28.01;73.89
28310;BME280;15571;50.974;13.936;2023-06-19T12:55:10;99792.06;;;27.99;73.49
28310;BME280;15571;50.974;13.936;2023-06-19T12:58:13;99802.34;;;27.94;70.07
28310;BME280;15571;50.974;13.936;2023-06-19T13:01:15;99807.16;;;27.90;70.33
28310;BME280;15571;50.974;13.936;2023-06-19T13:04:18;99791.41;;;27.86;71.64
28310;BME280;15571;50.974;13.936;2023-06-19T13:07:20;99784.31;;;27.85;72.56
28310;BME280;15571;50.974;13.936;2023-06-19T13:10:22;99783.47;;;27.84;69.96
28310;BME280;15571;50.974;13.936;2023-06-19T13:13:28;99774.16;;;27.88;69.42
28310;BME280;15571;50.974;13.936;2023-06-19T13:16:31;99768.91;;;27.87;70.68
28310;BME280;15571;50.974;13.936;2023-06-19T13:19:33;99765.19;;;27.99;69.77
28310;BME280;15571;50.974;13.936;2023-06-19T13:22:38;99771.53;;;27.98;70.64
28310;BME280;15571;50.974;13.936;2023-06-19T13:25:40;99786.91;;;28.07;71.75
28310;BME280;15571;50.974;13.936;2023-06-19T13:28:44;99782.47;;;28.06;72.15
28310;BME280;15571;50.974;13.936;2023-06-19T13:31:46;99779.78;;;28.06;73.40
28310;BME280;15571;50.974;13.936;2023-06-19T13:34:48;99766.22;;;28.08;73.84
28310;BME280;15571;50.974;13.936;2023-06-19T13:37:50;99766.13;;;28.09;74.38
28310;BME280;15571;50.974;13.936;2023-06-19T13:40:52;99760.59;;;28.11;74.89
28310;BME280;15571;50.974;13.936;2023-06-19T13:43:55;99765.00;;;28.12;75.89
28310;BME280;15571;50.974;13.936;2023-06-19T13:46:57;99768.25;;;28.16;76.35
28310;BME280;15571;50.974;13.936;2023-06-19T13:49:59;99767.03;;;28.20;77.71
28310;BME280;15571;50.974;13.936;2023-06-19T13:53:04;99770.88;;;28.27;79.03
28310;BME280;15571;50.974;13.936;2023-06-19T13:56:12;99772.75;;;28.36;76.64
28310;BME280;15571;50.974;13.936;2023-06-19T13:59:16;99768.09;;;28.38;74.42
28310;BME280;15571;50.974;13.936;2023-06-19T14:02:18;99759.78;;;28.51;74.71
28310;BME280;15571;50.974;13.936;2023-06-19T14:05:23;99752.56;;;28.52;75.28
28310;BME280;15571;50.974;13.936;2023-06-19T14:08:25;99758.63;;;28.44;76.12
28310;BME280;15571;50.974;13.936;2023-06-19T14:11:27;99759.03;;;28.39;76.95
28310;BME280;15571;50.974;13.936;2023-06-19T14:14:31;99757.34;;;28.38;78.59
28310;BME280;15571;50.974;13.936;2023-06-19T14:17:33;99760.44;;;28.34;78.47
28310;BME280;15571;50.974;13.936;2023-06-19T14:20:35;99755.31;;;28.31;79.22
28310;BME280;15571;50.974;13.936;2023-06-19T14:23:38;99761.81;;;28.28;79.58
28310;BME280;15571;50.974;13.936;2023-06-19T14:26:47;99750.75;;;28.21;79.70
28310;BME280;15571;50.974;13.936;2023-06-19T14:29:51;99751.56;;;28.22;80.49
28310;BME280;15571;50.974;13.936;2023-06-19T14:32:58;99745.94;;;28.25;80.75
28310;BME280;15571;50.974;13.936;2023-06-19T14:36:00;99748.22;;;28.30;81.54
28310;BME280;15571;50.974;13.936;2023-06-19T14:39:03;99747.69;;;28.36;80.44
28310;BME280;15571;50.974;13.936;2023-06-19T14:42:05;99748.00;;;28.42;77.82
28310;BME280;15571;50.974;13.936;2023-06-19T14:45:10;99751.13;;;28.48;75.48
28310;BME280;15571;50.974;13.936;2023-06-19T14:48:12;99755.56;;;28.58;75.64
28310;BME280;15571;50.974;13.936;2023-06-19T14:51:14;99759.53;;;28.64;74.79
28310;BME280;15571;50.974;13.936;2023-06-19T14:54:19;99759.13;;;28.59;74.58
28310;BME280;15571;50.974;13.936;2023-06-19T14:57:21;99746.94;;;28.65;76.72
28310;BME280;15571;50.974;13.936;2023-06-19T15:00:28;99749.75;;;28.63;79.12
28310;BME280;15571;50.974;13.936;2023-06-19T15:03:30;99741.13;;;28.60;79.47
28310;BME280;15571;50.974;13.936;2023-06-19T15:06:35;99740.78;;;28.53;81.18
28310;BME280;15571;50.974;13.936;2023-06-19T15:09:40;99739.56;;;28.57;81.09
28310;BME280;15571;50.974;13.936;2023-06-19T15:12:42;99741.53;;;28.55;84.31
28310;BME280;15571;50.974;13.936;2023-06-19T15:15:46;99745.09;;;28.65;84.81
28310;BME280;15571;50.974;13.936;2023-06-19T15:18:48;99744.13;;;28.66;84.64
28310;BME280;15571;50.974;13.936;2023-06-19T15:21:50;99737.59;;;28.69;85.04
28310;BME280;15571;50.974;13.936;2023-06-19T15:24:53;99746.84;;;28.76;86.53
28310;BME280;15571;50.974;13.936;2023-06-19T15:28:02;99738.81;;;28.86;85.17
28310;BME280;15571;50.974;13.936;2023-06-19T15:31:08;99734.56;;;28.93;84.15
28310;BME280;15571;50.974;13.936;2023-06-19T15:34:10;99733.72;;;28.93;83.29
28310;BME280;15571;50.974;13.936;2023-06-19T15:37:15;99733.84;;;28.91;84.63
28310;BME280;15571;50.974;13.936;2023-06-19T15:40:17;99737.41;;;28.92;84.38
28310;BME280;15571;50.974;13.936;2023-06-19T15:43:21;99734.56;;;28.93;84.74
28310;BME280;15571;50.974;13.936;2023-06-19T15:46:30;99731.44;;;28.98;83.86
28310;BME280;15571;50.974;13.936;2023-06-19T15:49:35;99725.06;;;28.89;84.91
28310;BME280;15571;50.974;13.936;2023-06-19T15:52:37;99736.53;;;28.81;85.08
28310;BME280;15571;50.974;13.936;2023-06-19T15:55:39;99730.56;;;28.78;85.13